sensor_id;sensor_type;location;lat;lon;timestamp;pressure;altitude;pressure_sealevel;temperature;humidity
74594;BME280;63097;51.872;4.460;2023-02-19T00:00:02;102043.97;;;9.20;94.65
74594;BME280;63097;51.872;4.460;2023-02-19T00:02:28;102045.88;;;9.12;94.13
74594;BME280;63097;51.872;4.460;2023-02-19T00:04:53;102043.97;;;9.00;94.64
74594;BME280;63097;51.872;4.460;2023-02-19T00:07:19;102054.25;;;9.06;94.94
74594;BME280;63097;51.872;4.460;2023-02-19T00:09:44;102047.81;;;9.05;94.75
74594;BME280;63097;51.872;4.460;2023-02-19T00:12:09;102051.03;;;9.09;94.30
74594;BME280;63097;51.872;4.460;2023-02-19T00:14:34;102046.75;;;9.06;94.72
74594;BME280;63097;51.872;4.460;2023-02-19T00:17:00;102046.50;;;9.21;93.46
74594;BME280;63097;51.872;4.460;2023-02-19T00:19:26;102046.97;;;9.25;93.10
74594;BME280;63097;51.872;4.460;2023-02-19T00:21:52;102054.44;;;9.24;93.16
74594;BME280;63097;51.872;4.460;2023-02-19T00:24:17;102050.78;;;9.24;93.32
74594;BME280;63097;51.872;4.460;2023-02-19T00:26:44;102054.66;;;9.36;92.16
74594;BME280;63097;51.872;4.460;2023-02-19T00:29:20;102040.13;;;9.21;92.87
74594;BME280;63097;51.872;4.460;2023-02-19T00:31:46;102044.38;;;9.36;91.99
74594;BME280;63097;51.872;4.460;2023-02-19T00:34:12;102054.41;;;9.44;91.45
74594;BME280;63097;51.872;4.460;2023-02-19T00:36:39;102067.00;;;9.40;91.38
74594;BME280;63097;51.872;4.460;2023-02-19T00:39:06;102059.97;;;9.37;91.52
74594;BME280;63097;51.872;4.460;2023-02-19T00:41:32;102076.66;;;9.24;92.40
74594;BME280;63097;51.872;4.460;2023-02-19T00:44:06;102070.88;;;9.39;91.14
74594;BME280;63097;51.872;4.460;2023-02-19T00:46:34;102067.66;;;9.35;91.48
74594;BME280;63097;51.872;4.460;2023-02-19T00:49:04;102076.66;;;9.37;91.38
74594;BME280;63097;51.872;4.460;2023-02-19T00:51:32;102080.47;;;9.49;89.99
74594;BME280;63097;51.872;4.460;2023-02-19T00:53:57;102070.22;;;9.50;90.07
74594;BME280;63097;51.872;4.460;2023-02-19T00:56:23;102070.44;;;9.48;90.47
74594;BME280;63097;51.872;4.460;2023-02-19T00:58:48;102078.34;;;9.38;90.85
74594;BME280;63097;51.872;4.460;2023-02-19T01:01:14;102080.69;;;9.35;91.23
74594;BME280;63097;51.872;4.460;2023-02-19T01:03:40;102080.69;;;9.41;91.04
74594;BME280;63097;51.872;4.460;2023-02-19T01:06:06;102071.94;;;9.44;90.63
74594;BME280;63097;51.872;4.460;2023-02-19T01:08:33;102072.78;;;9.45;90.80
74594;BME280;63097;51.872;4.460;2023-02-19T01:10:59;102080.25;;;9.57;89.88
74594;BME280;63097;51.872;4.460;2023-02-19T01:13:25;102075.78;;;9.50;90.41
74594;BME280;63097;51.872;4.460;2023-02-19T01:15:50;102084.97;;;9.50;90.39
74594;BME280;63097;51.872;4.460;2023-02-19T01:18:15;102085.16;;;9.55;90.02
74594;BME280;63097;51.872;4.460;2023-02-19T01:20:43;102080.69;;;9.48;90.31
74594;BME280;63097;51.872;4.460;2023-02-19T01:23:10;102090.28;;;9.65;89.31
74594;BME280;63097;51.872;4.460;2023-02-19T01:25:40;102096.50;;;9.41;90.89
74594;BME280;63097;51.872;4.460;2023-02-19T01:28:06;102095.44;;;9.48;90.39
74594;BME280;63097;51.872;4.460;2023-02-19T01:30:35;102083.88;;;9.64;89.25
74594;BME280;63097;51.872;4.460;2023-02-19T01:33:00;102089.00;;;9.54;90.02
74594;BME280;63097;51.872;4.460;2023-02-19T01:35:26;102085.81;;;9.57;89.79
74594;BME280;63097;51.872;4.460;2023-02-19T01:37:51;102087.28;;;9.53;90.43
74594;BME280;63097;51.872;4.460;2023-02-19T01:40:16;102084.72;;;9.65;89.53
74594;BME280;63097;51.872;4.460;2023-02-19T01:42:42;102088.59;;;9.57;89.85
74594;BME280;63097;51.872;4.460;2023-02-19T01:48:11;102085.38;;;9.54;89.92
74594;BME280;63097;51.872;4.460;2023-02-19T01:51:15;102096.88;;;9.64;89.11
74594;BME280;63097;51.872;4.460;2023-02-19T01:53:36;102084.72;;;9.58;89.19
74594;BME280;63097;51.872;4.460;2023-02-19T01:56:04;102094.53;;;9.74;88.24
74594;BME280;63097;51.872;4.460;2023-02-19T01:58:33;102093.03;;;9.71;88.60
74594;BME280;63097;51.872;4.460;2023-02-19T02:01:01;102090.25;;;9.71;88.37
74594;BME280;63097;51.872;4.460;2023-02-19T02:03:27;102085.75;;;9.77;88.21
74594;BME280;63097;51.872;4.460;2023-02-19T02:06:01;102095.41;;;9.68;88.71
74594;BME280;63097;51.872;4.460;2023-02-19T02:08:27;102097.50;;;9.79;88.12
74594;BME280;63097;51.872;4.460;2023-02-19T02:10:54;102100.09;;;9.67;88.78
74594;BME280;63097;51.872;4.460;2023-02-19T02:13:21;102107.59;;;9.67;88.63
74594;BME280;63097;51.872;4.460;2023-02-19T02:18:50;102105.22;;;9.70;88.49
74594;BME280;63097;51.872;4.460;2023-02-19T02:24:11;102097.97;;;9.63;88.85
74594;BME280;63097;51.872;4.460;2023-02-19T02:26:45;102105.66;;;9.61;89.37
74594;BME280;63097;51.872;4.460;2023-02-19T02:31:53;102103.34;;;9.45;89.74
74594;BME280;63097;51.872;4.460;2023-02-19T02:34:32;102098.59;;;9.58;88.86
74594;BME280;63097;51.872;4.460;2023-02-19T02:36:59;102109.69;;;9.71;88.25
74594;BME280;63097;51.872;4.460;2023-02-19T02:39:26;102113.53;;;9.77;87.89
74594;BME280;63097;51.872;4.460;2023-02-19T02:41:57;102119.34;;;9.62;88.71
74594;BME280;63097;51.872;4.460;2023-02-19T02:44:33;102106.72;;;9.66;88.31
74594;BME280;63097;51.872;4.460;2023-02-19T02:46:58;102121.47;;;9.67;88.62
74594;BME280;63097;51.872;4.460;2023-02-19T02:49:24;102121.69;;;9.72;88.56
74594;BME280;63097;51.872;4.460;2023-02-19T02:51:51;102124.66;;;9.77;88.06
74594;BME280;63097;51.872;4.460;2023-02-19T02:54:30;102122.03;;;10.01;86.21
74594;BME280;63097;51.872;4.460;2023-02-19T02:56:58;102123.97;;;10.01;86.11
74594;BME280;63097;51.872;4.460;2023-02-19T02:59:26;102129.75;;;9.93;86.65
74594;BME280;63097;51.872;4.460;2023-02-19T03:02:03;102124.19;;;9.93;86.57
74594;BME280;63097;51.872;4.460;2023-02-19T03:07:07;102131.47;;;9.94;86.25
74594;BME280;63097;51.872;4.460;2023-02-19T03:09:40;102139.78;;;10.07;85.18
74594;BME280;63097;51.872;4.460;2023-02-19T03:12:11;102135.31;;;10.13;84.88
74594;BME280;63097;51.872;4.460;2023-02-19T03:14:45;102125.69;;;9.89;86.30
74594;BME280;63097;51.872;4.460;2023-02-19T03:17:19;102129.75;;;9.99;85.92
74594;BME280;63097;51.872;4.460;2023-02-19T03:19:49;102135.09;;;9.88;86.51
74594;BME280;63097;51.872;4.460;2023-02-19T03:22:24;102136.41;;;9.79;87.42
74594;BME280;63097;51.872;4.460;2023-02-19T03:24:54;102144.53;;;9.80;87.20
74594;BME280;63097;51.872;4.460;2023-02-19T03:27:20;102141.91;;;10.05;85.56
74594;BME280;63097;51.872;4.460;2023-02-19T03:29:49;102149.63;;;9.96;85.67
74594;BME280;63097;51.872;4.460;2023-02-19T03:32:24;102144.91;;;9.97;85.85
74594;BME280;63097;51.872;4.460;2023-02-19T03:35:02;102162.88;;;10.01;85.31
74594;BME280;63097;51.872;4.460;2023-02-19T03:37:48;102161.22;;;9.87;86.14
74594;BME280;63097;51.872;4.460;2023-02-19T03:40:15;102161.81;;;9.95;85.73
74594;BME280;63097;51.872;4.460;2023-02-19T03:42:59;102158.84;;;9.90;86.05
74594;BME280;63097;51.872;4.460;2023-02-19T03:45:35;102166.75;;;9.80;86.68
74594;BME280;63097;51.872;4.460;2023-02-19T03:51:43;102178.94;;;9.73;87.12
74594;BME280;63097;51.872;4.460;2023-02-19T03:56:18;102181.06;;;9.71;87.09
74594;BME280;63097;51.872;4.460;2023-02-19T03:58:54;102188.53;;;9.83;85.95
74594;BME280;63097;51.872;4.460;2023-02-19T04:01:36;102180.03;;;9.72;86.68
74594;BME280;63097;51.872;4.460;2023-02-19T04:04:10;102176.19;;;9.66;87.08
74594;BME280;63097;51.872;4.460;2023-02-19T04:06:36;102178.13;;;9.72;86.76
74594;BME280;63097;51.872;4.460;2023-02-19T04:09:05;102178.97;;;9.79;86.63
74594;BME280;63097;51.872;4.460;2023-02-19T04:11:32;102188.75;;;9.82;86.34
74594;BME280;63097;51.872;4.460;2023-02-19T04:16:28;102178.97;;;9.79;86.38
74594;BME280;63097;51.872;4.460;2023-02-19T04:18:57;102191.13;;;9.91;86.33
74594;BME280;63097;51.872;4.460;2023-02-19T04:21:23;102196.47;;;9.86;86.22
74594;BME280;63097;51.872;4.460;2023-02-19T04:23:50;102189.41;;;9.84;86.41
74594;BME280;63097;51.872;4.460;2023-02-19T04:26:19;102193.91;;;9.78;86.86
74594;BME280;63097;51.872;4.460;2023-02-19T04:28:46;102197.31;;;9.80;86.85
74594;BME280;63097;51.872;4.460;2023-02-19T04:31:11;102207.56;;;9.93;85.71
74594;BME280;63097;51.872;4.460;2023-02-19T04:33:37;102216.78;;;9.80;86.06
74594;BME280;63097;51.872;4.460;2023-02-19T04:36:02;102212.72;;;9.89;85.31
74594;BME280;63097;51.872;4.460;2023-02-19T04:38:28;102213.56;;;9.83;85.61
74594;BME280;63097;51.872;4.460;2023-02-19T04:40:53;102229.63;;;9.81;85.35
74594;BME280;63097;51.872;4.460;2023-02-19T04:43:18;102235.38;;;9.80;85.66
74594;BME280;63097;51.872;4.460;2023-02-19T04:45:44;102236.66;;;9.90;84.96
74594;BME280;63097;51.872;4.460;2023-02-19T04:48:09;102244.38;;;9.88;85.08
74594;BME280;63097;51.872;4.460;2023-02-19T04:50:38;102245.84;;;9.91;84.06
74594;BME280;63097;51.872;4.460;2023-02-19T04:53:04;102257.16;;;9.76;84.77
74594;BME280;63097;51.872;4.460;2023-02-19T04:55:30;102241.56;;;9.82;84.56
74594;BME280;63097;51.872;4.460;2023-02-19T04:57:56;102259.09;;;9.89;83.87
74594;BME280;63097;51.872;4.460;2023-02-19T05:00:21;102264.22;;;9.85;83.88
74594;BME280;63097;51.872;4.460;2023-02-19T05:02:46;102267.00;;;9.85;84.01
74594;BME280;63097;51.872;4.460;2023-02-19T05:05:12;102267.25;;;9.77;83.95
74594;BME280;63097;51.872;4.460;2023-02-19T05:07:37;102277.28;;;9.85;83.84
74594;BME280;63097;51.872;4.460;2023-02-19T05:10:02;102282.59;;;9.80;83.67
74594;BME280;63097;51.872;4.460;2023-02-19T05:12:29;102284.97;;;9.83;83.86
74594;BME280;63097;51.872;4.460;2023-02-19T05:14:54;102286.25;;;9.74;84.38
74594;BME280;63097;51.872;4.460;2023-02-19T05:17:19;102290.53;;;9.70;84.62
74594;BME280;63097;51.872;4.460;2023-02-19T05:19:45;102301.22;;;9.79;83.97
74594;BME280;63097;51.872;4.460;2023-02-19T05:22:10;102300.38;;;9.72;84.50
74594;BME280;63097;51.872;4.460;2023-02-19T05:24:35;102301.22;;;9.79;84.17
74594;BME280;63097;51.872;4.460;2023-02-19T05:27:01;102307.84;;;9.72;84.54
74594;BME280;63097;51.872;4.460;2023-02-19T05:29:26;102304.22;;;9.65;85.16
74594;BME280;63097;51.872;4.460;2023-02-19T05:31:51;102310.16;;;9.62;85.67
74594;BME280;63097;51.872;4.460;2023-02-19T05:34:16;102312.06;;;9.55;86.50
74594;BME280;63097;51.872;4.460;2023-02-19T05:36:42;102311.66;;;9.45;87.79
74594;BME280;63097;51.872;4.460;2023-02-19T05:39:10;102317.16;;;9.32;88.48
74594;BME280;63097;51.872;4.460;2023-02-19T05:41:36;102308.78;;;9.19;89.13
74594;BME280;63097;51.872;4.460;2023-02-19T05:44:01;102303.44;;;9.17;89.64
74594;BME280;63097;51.872;4.460;2023-02-19T05:46:28;102309.16;;;9.02;90.23
74594;BME280;63097;51.872;4.460;2023-02-19T05:48:53;102310.03;;;9.09;90.04
74594;BME280;63097;51.872;4.460;2023-02-19T05:51:21;102306.00;;;9.19;89.96
74594;BME280;63097;51.872;4.460;2023-02-19T05:53:47;102312.59;;;9.18;90.36
74594;BME280;63097;51.872;4.460;2023-02-19T05:56:40;102319.19;;;9.03;91.55
74594;BME280;63097;51.872;4.460;2023-02-19T06:01:36;102317.84;;;8.93;92.50
74594;BME280;63097;51.872;4.460;2023-02-19T06:04:01;102322.31;;;8.87;92.67
74594;BME280;63097;51.872;4.460;2023-02-19T06:06:26;102322.75;;;8.84;93.25
74594;BME280;63097;51.872;4.460;2023-02-19T06:08:52;102321.50;;;8.93;92.97
74594;BME280;63097;51.872;4.460;2023-02-19T06:11:18;102331.06;;;8.91;92.89
74594;BME280;63097;51.872;4.460;2023-02-19T06:13:44;102330.22;;;8.90;92.84
74594;BME280;63097;51.872;4.460;2023-02-19T06:16:10;102331.25;;;8.83;93.62
74594;BME280;63097;51.872;4.460;2023-02-19T06:18:35;102336.34;;;8.79;94.23
74594;BME280;63097;51.872;4.460;2023-02-19T06:21:05;102344.19;;;8.69;94.46
74594;BME280;63097;51.872;4.460;2023-02-19T06:23:31;102347.41;;;8.73;94.43
74594;BME280;63097;51.872;4.460;2023-02-19T06:26:19;102348.88;;;8.69;95.01
74594;BME280;63097;51.872;4.460;2023-02-19T06:28:46;102356.97;;;8.64;95.18
74594;BME280;63097;51.872;4.460;2023-02-19T06:31:12;102361.19;;;8.60;95.18
74594;BME280;63097;51.872;4.460;2023-02-19T06:33:38;102351.44;;;8.70;94.92
74594;BME280;63097;51.872;4.460;2023-02-19T06:36:03;102362.75;;;8.69;94.25
74594;BME280;63097;51.872;4.460;2023-02-19T06:38:29;102358.31;;;8.74;93.99
74594;BME280;63097;51.872;4.460;2023-02-19T06:41:00;102352.53;;;8.76;93.93
74594;BME280;63097;51.872;4.460;2023-02-19T06:43:25;102359.53;;;8.65;94.60
74594;BME280;63097;51.872;4.460;2023-02-19T06:45:50;102375.16;;;8.73;93.59
74594;BME280;63097;51.872;4.460;2023-02-19T06:48:16;102377.31;;;8.77;93.17
74594;BME280;63097;51.872;4.460;2023-02-19T06:50:41;102380.66;;;8.66;94.40
74594;BME280;63097;51.872;4.460;2023-02-19T06:53:06;102374.47;;;8.64;94.92
74594;BME280;63097;51.872;4.460;2023-02-19T06:55:32;102375.31;;;8.65;94.82
74594;BME280;63097;51.872;4.460;2023-02-19T06:57:57;102378.09;;;8.65;95.06
74594;BME280;63097;51.872;4.460;2023-02-19T07:00:22;102378.16;;;8.71;94.38
74594;BME280;63097;51.872;4.460;2023-02-19T07:02:48;102380.06;;;8.71;93.91
74594;BME280;63097;51.872;4.460;2023-02-19T07:05:13;102380.28;;;8.76;92.98
74594;BME280;63097;51.872;4.460;2023-02-19T07:07:38;102390.34;;;8.77;92.60
74594;BME280;63097;51.872;4.460;2023-02-19T07:10:04;102402.47;;;8.69;93.45
74594;BME280;63097;51.872;4.460;2023-02-19T07:12:29;102399.25;;;8.72;93.12
74594;BME280;63097;51.872;4.460;2023-02-19T07:14:54;102401.00;;;8.73;93.04
74594;BME280;63097;51.872;4.460;2023-02-19T07:17:20;102409.34;;;8.80;92.49
74594;BME280;63097;51.872;4.460;2023-02-19T07:19:45;102412.94;;;8.74;92.64
74594;BME280;63097;51.872;4.460;2023-02-19T07:22:10;102417.47;;;8.81;92.55
74594;BME280;63097;51.872;4.460;2023-02-19T07:24:36;102425.09;;;8.73;92.67
74594;BME280;63097;51.872;4.460;2023-02-19T07:27:01;102432.13;;;8.75;92.82
74594;BME280;63097;51.872;4.460;2023-02-19T07:29:26;102435.50;;;8.64;93.44
74594;BME280;63097;51.872;4.460;2023-02-19T07:31:52;102443.84;;;8.71;92.96
74594;BME280;63097;51.872;4.460;2023-02-19T07:34:17;102439.41;;;8.76;93.12
74594;BME280;63097;51.872;4.460;2023-02-19T07:36:42;102455.00;;;8.77;92.69
74594;BME280;63097;51.872;4.460;2023-02-19T07:39:11;102453.75;;;8.80;92.45
74594;BME280;63097;51.872;4.460;2023-02-19T07:41:37;102458.59;;;8.71;92.94
74594;BME280;63097;51.872;4.460;2023-02-19T07:44:02;102459.75;;;8.83;91.87
74594;BME280;63097;51.872;4.460;2023-02-19T07:46:28;102461.50;;;8.91;91.74
74594;BME280;63097;51.872;4.460;2023-02-19T07:48:53;102479.50;;;9.01;90.59
74594;BME280;63097;51.872;4.460;2023-02-19T07:51:19;102480.38;;;9.02;90.03
74594;BME280;63097;51.872;4.460;2023-02-19T07:53:45;102472.47;;;8.99;89.66
74594;BME280;63097;51.872;4.460;2023-02-19T07:56:11;102498.50;;;8.98;89.91
74594;BME280;63097;51.872;4.460;2023-02-19T07:58:37;102497.59;;;8.91;90.65
74594;BME280;63097;51.872;4.460;2023-02-19T08:01:14;102498.38;;;8.85;91.44
74594;BME280;63097;51.872;4.460;2023-02-19T08:03:40;102506.91;;;8.83;91.85
74594;BME280;63097;51.872;4.460;2023-02-19T08:06:06;102505.38;;;8.81;92.35
74594;BME280;63097;51.872;4.460;2023-02-19T08:08:31;102517.81;;;8.85;90.78
74594;BME280;63097;51.872;4.460;2023-02-19T08:11:00;102522.03;;;8.81;90.49
74594;BME280;63097;51.872;4.460;2023-02-19T08:13:28;102526.97;;;8.79;89.92
74594;BME280;63097;51.872;4.460;2023-02-19T08:16:08;102529.53;;;8.80;90.03
74594;BME280;63097;51.872;4.460;2023-02-19T08:18:34;102535.06;;;8.80;89.66
74594;BME280;63097;51.872;4.460;2023-02-19T08:20:59;102535.06;;;8.80;89.89
74594;BME280;63097;51.872;4.460;2023-02-19T08:23:26;102541.66;;;8.79;90.38
74594;BME280;63097;51.872;4.460;2023-02-19T08:25:53;102535.72;;;8.82;89.80
74594;BME280;63097;51.872;4.460;2023-02-19T08:28:21;102532.97;;;8.82;89.48
74594;BME280;63097;51.872;4.460;2023-02-19T08:30:47;102526.88;;;8.93;89.30
74594;BME280;63097;51.872;4.460;2023-02-19T08:33:17;102527.78;;;9.00;89.14
74594;BME280;63097;51.872;4.460;2023-02-19T08:35:43;102524.47;;;8.90;89.66
74594;BME280;63097;51.872;4.460;2023-02-19T08:38:09;102528.00;;;9.05;89.43
74594;BME280;63097;51.872;4.460;2023-02-19T08:40:39;102532.97;;;9.10;89.33
74594;BME280;63097;51.872;4.460;2023-02-19T08:43:08;102529.56;;;9.14;88.88
74594;BME280;63097;51.872;4.460;2023-02-19T08:45:35;102526.19;;;9.19;88.54
74594;BME280;63097;51.872;4.460;2023-02-19T08:48:01;102533.91;;;9.24;88.40
74594;BME280;63097;51.872;4.460;2023-02-19T08:50:26;102535.69;;;9.38;87.38
74594;BME280;63097;51.872;4.460;2023-02-19T08:52:51;102532.31;;;9.42;88.15
74594;BME280;63097;51.872;4.460;2023-02-19T08:55:17;102549.00;;;9.49;86.75
74594;BME280;63097;51.872;4.460;2023-02-19T08:57:42;102547.09;;;9.49;87.00
74594;BME280;63097;51.872;4.460;2023-02-19T09:00:08;102549.19;;;9.41;87.15
74594;BME280;63097;51.872;4.460;2023-02-19T09:02:34;102550.06;;;9.41;86.95
74594;BME280;63097;51.872;4.460;2023-02-19T09:05:00;102544.53;;;9.48;87.00
74594;BME280;63097;51.872;4.460;2023-02-19T09:07:26;102535.97;;;9.43;86.29
74594;BME280;63097;51.872;4.460;2023-02-19T09:09:51;102526.66;;;9.63;85.76
74594;BME280;63097;51.872;4.460;2023-02-19T09:12:16;102527.31;;;9.65;85.10
74594;BME280;63097;51.872;4.460;2023-02-19T09:14:41;102541.25;;;9.72;85.30
74594;BME280;63097;51.872;4.460;2023-02-19T09:17:08;102553.69;;;9.76;84.28
74594;BME280;63097;51.872;4.460;2023-02-19T09:19:34;102553.59;;;9.63;84.98
74594;BME280;63097;51.872;4.460;2023-02-19T09:21:59;102559.31;;;9.55;84.77
74594;BME280;63097;51.872;4.460;2023-02-19T09:24:25;102557.84;;;9.59;86.43
74594;BME280;63097;51.872;4.460;2023-02-19T09:26:51;102567.09;;;9.66;84.76
74594;BME280;63097;51.872;4.460;2023-02-19T09:29:17;102577.97;;;9.61;85.34
74594;BME280;63097;51.872;4.460;2023-02-19T09:31:43;102590.91;;;9.81;83.97
74594;BME280;63097;51.872;4.460;2023-02-19T09:34:08;102603.75;;;9.89;83.59
74594;BME280;63097;51.872;4.460;2023-02-19T09:36:34;102597.56;;;9.87;83.46
74594;BME280;63097;51.872;4.460;2023-02-19T09:38:59;102590.50;;;9.84;83.28
74594;BME280;63097;51.872;4.460;2023-02-19T09:41:29;102604.22;;;9.92;84.17
74594;BME280;63097;51.872;4.460;2023-02-19T09:44:00;102617.06;;;10.00;82.57
74594;BME280;63097;51.872;4.460;2023-02-19T09:46:35;102603.59;;;9.97;81.32
74594;BME280;63097;51.872;4.460;2023-02-19T09:49:50;102620.41;;;9.82;82.17
74594;BME280;63097;51.872;4.460;2023-02-19T09:51:57;102616.94;;;9.74;83.07
74594;BME280;63097;51.872;4.460;2023-02-19T09:54:29;102621.06;;;9.84;83.05
74594;BME280;63097;51.872;4.460;2023-02-19T09:56:56;102644.56;;;9.82;82.15
74594;BME280;63097;51.872;4.460;2023-02-19T09:59:25;102650.94;;;9.76;82.03
74594;BME280;63097;51.872;4.460;2023-02-19T10:02:31;102646.63;;;9.67;83.06
74594;BME280;63097;51.872;4.460;2023-02-19T10:04:50;102651.56;;;9.78;82.94
74594;BME280;63097;51.872;4.460;2023-02-19T10:07:18;102640.75;;;9.89;81.42
74594;BME280;63097;51.872;4.460;2023-02-19T10:09:51;102640.03;;;10.08;81.28
74594;BME280;63097;51.872;4.460;2023-02-19T10:12:30;102647.22;;;9.96;81.22
74594;BME280;63097;51.872;4.460;2023-02-19T10:15:15;102656.19;;;9.92;80.85
74594;BME280;63097;51.872;4.460;2023-02-19T10:17:41;102652.31;;;9.93;80.85
74594;BME280;63097;51.872;4.460;2023-02-19T10:20:16;102630.34;;;9.64;79.67
74594;BME280;63097;51.872;4.460;2023-02-19T10:22:43;102664.19;;;9.74;80.17
74594;BME280;63097;51.872;4.460;2023-02-19T10:25:15;102662.97;;;9.83;80.68
74594;BME280;63097;51.872;4.460;2023-02-19T10:27:41;102659.97;;;9.84;80.22
74594;BME280;63097;51.872;4.460;2023-02-19T10:30:19;102684.34;;;9.82;80.41
74594;BME280;63097;51.872;4.460;2023-02-19T10:33:15;102674.28;;;9.81;79.51
74594;BME280;63097;51.872;4.460;2023-02-19T10:38:18;102697.56;;;9.80;78.30
74594;BME280;63097;51.872;4.460;2023-02-19T10:40:45;102691.75;;;9.48;80.17
74594;BME280;63097;51.872;4.460;2023-02-19T10:43:21;102696.44;;;9.47;80.83
74594;BME280;63097;51.872;4.460;2023-02-19T10:45:49;102694.13;;;9.51;80.42
74594;BME280;63097;51.872;4.460;2023-02-19T10:48:42;102696.94;;;9.30;81.03
74594;BME280;63097;51.872;4.460;2023-02-19T10:51:10;102691.50;;;9.22;81.27
74594;BME280;63097;51.872;4.460;2023-02-19T10:53:43;102695.75;;;9.18;82.65
74594;BME280;63097;51.872;4.460;2023-02-19T10:56:15;102703.91;;;9.19;82.21
74594;BME280;63097;51.872;4.460;2023-02-19T10:58:46;102700.16;;;9.12;81.81
74594;BME280;63097;51.872;4.460;2023-02-19T11:01:21;102700.00;;;9.13;81.81
74594;BME280;63097;51.872;4.460;2023-02-19T11:03:49;102705.56;;;9.13;82.04
74594;BME280;63097;51.872;4.460;2023-02-19T11:06:17;102703.69;;;8.99;81.61
74594;BME280;63097;51.872;4.460;2023-02-19T11:08:58;102696.75;;;9.10;81.40
74594;BME280;63097;51.872;4.460;2023-02-19T11:13:59;102694.91;;;9.17;81.32
74594;BME280;63097;51.872;4.460;2023-02-19T11:16:43;102703.50;;;9.22;80.92
74594;BME280;63097;51.872;4.460;2023-02-19T11:19:39;102698.59;;;9.24;81.07
74594;BME280;63097;51.872;4.460;2023-02-19T11:25:04;102687.63;;;9.16;80.59
74594;BME280;63097;51.872;4.460;2023-02-19T11:27:31;102692.78;;;8.98;81.66
74594;BME280;63097;51.872;4.460;2023-02-19T11:35:43;102687.75;;;9.29;79.96
74594;BME280;63097;51.872;4.460;2023-02-19T11:38:10;102691.13;;;9.25;80.84
74594;BME280;63097;51.872;4.460;2023-02-19T11:40:42;102691.13;;;9.25;81.22
74594;BME280;63097;51.872;4.460;2023-02-19T11:46:33;102691.41;;;9.57;80.36
74594;BME280;63097;51.872;4.460;2023-02-19T11:54:30;102685.53;;;9.46;80.90
74594;BME280;63097;51.872;4.460;2023-02-19T11:57:21;102686.25;;;9.54;81.23
74594;BME280;63097;51.872;4.460;2023-02-19T12:24:54;102701.44;;;9.79;80.26
74594;BME280;63097;51.872;4.460;2023-02-19T12:44:25;102735.63;;;9.80;83.51
74594;BME280;63097;51.872;4.460;2023-02-19T12:46:57;102718.13;;;9.86;81.37
74594;BME280;63097;51.872;4.460;2023-02-19T12:49:27;102723.28;;;9.89;79.84
74594;BME280;63097;51.872;4.460;2023-02-19T12:52:18;102734.34;;;9.82;78.78
74594;BME280;63097;51.872;4.460;2023-02-19T12:55:15;102740.94;;;9.75;79.21
74594;BME280;63097;51.872;4.460;2023-02-19T12:57:45;102746.66;;;9.46;79.10
74594;BME280;63097;51.872;4.460;2023-02-19T13:00:40;102747.78;;;9.51;79.29
74594;BME280;63097;51.872;4.460;2023-02-19T13:05:56;102760.13;;;9.70;79.07
74594;BME280;63097;51.872;4.460;2023-02-19T13:08:38;102770.84;;;9.73;78.49
74594;BME280;63097;51.872;4.460;2023-02-19T13:11:09;102782.09;;;9.44;79.26
74594;BME280;63097;51.872;4.460;2023-02-19T13:13:48;102787.31;;;9.11;78.34
74594;BME280;63097;51.872;4.460;2023-02-19T13:16:17;102777.84;;;9.05;80.05
74594;BME280;63097;51.872;4.460;2023-02-19T13:18:47;102782.09;;;9.23;78.35
74594;BME280;63097;51.872;4.460;2023-02-19T13:21:15;102784.16;;;9.35;77.26
74594;BME280;63097;51.872;4.460;2023-02-19T13:23:41;102781.19;;;9.37;76.09
74594;BME280;63097;51.872;4.460;2023-02-19T13:26:26;102759.94;;;9.29;77.13
74594;BME280;63097;51.872;4.460;2023-02-19T13:34:53;102779.78;;;9.26;79.73
74594;BME280;63097;51.872;4.460;2023-02-19T13:37:23;102786.00;;;9.28;80.48
74594;BME280;63097;51.872;4.460;2023-02-19T13:39:53;102798.03;;;9.56;79.47
74594;BME280;63097;51.872;4.460;2023-02-19T13:42:32;102805.44;;;9.49;79.95
74594;BME280;63097;51.872;4.460;2023-02-19T13:44:58;102801.31;;;9.87;78.48
74594;BME280;63097;51.872;4.460;2023-02-19T13:47:44;102797.03;;;11.35;73.64
74594;BME280;63097;51.872;4.460;2023-02-19T13:50:18;102803.59;;;11.07;72.31
74594;BME280;63097;51.872;4.460;2023-02-19T13:52:44;102811.91;;;10.54;74.83
74594;BME280;63097;51.872;4.460;2023-02-19T13:58:37;102826.63;;;9.71;80.17
74594;BME280;63097;51.872;4.460;2023-02-19T14:01:07;102827.25;;;9.10;83.11
74594;BME280;63097;51.872;4.460;2023-02-19T14:06:01;102823.34;;;8.75;83.90
74594;BME280;63097;51.872;4.460;2023-02-19T14:11:13;102827.94;;;9.75;80.31
74594;BME280;63097;51.872;4.460;2023-02-19T14:25:32;102824.16;;;11.99;69.22
74594;BME280;63097;51.872;4.460;2023-02-19T14:30:31;102819.13;;;11.30;70.54
74594;BME280;63097;51.872;4.460;2023-02-19T14:32:59;102837.56;;;10.83;71.83
74594;BME280;63097;51.872;4.460;2023-02-19T14:35:33;102843.88;;;9.88;75.39
74594;BME280;63097;51.872;4.460;2023-02-19T14:38:00;102841.88;;;9.40;76.69
74594;BME280;63097;51.872;4.460;2023-02-19T14:40:32;102832.47;;;9.20;79.27
74594;BME280;63097;51.872;4.460;2023-02-19T14:43:01;102832.16;;;9.29;78.46
74594;BME280;63097;51.872;4.460;2023-02-19T14:45:27;102839.63;;;8.93;79.30
74594;BME280;63097;51.872;4.460;2023-02-19T14:47:55;102828.72;;;9.27;78.63
74594;BME280;63097;51.872;4.460;2023-02-19T14:50:27;102819.19;;;9.36;78.38
74594;BME280;63097;51.872;4.460;2023-02-19T14:52:57;102819.91;;;9.24;78.56
74594;BME280;63097;51.872;4.460;2023-02-19T14:55:27;102820.97;;;9.23;79.43
74594;BME280;63097;51.872;4.460;2023-02-19T14:57:55;102814.50;;;9.16;79.52
74594;BME280;63097;51.872;4.460;2023-02-19T15:00:35;102811.00;;;9.28;79.53
74594;BME280;63097;51.872;4.460;2023-02-19T15:03:01;102823.19;;;9.12;79.84
74594;BME280;63097;51.872;4.460;2023-02-19T15:05:28;102825.25;;;9.04;79.19
74594;BME280;63097;51.872;4.460;2023-02-19T15:07:57;102820.44;;;8.98;79.48
74594;BME280;63097;51.872;4.460;2023-02-19T15:10:25;102816.13;;;8.95;78.43